Terminal Aerodrome Forecast
Issued by NWS Charleston, WV

Current Version | Previous Version | Text Only | Print | Product List | Glossary Off
Versions: 1 2 3 4 5 6 7 8 9 10 11 12 13 14 15 16 17 18 19 20 21 22 23

920
FTUS41 KRLX 221725
TAFEKN
TAF
KEKN 221725Z 2218/2318 26007G11KT P6SM SCT035 BKN050
     FM222000 29008G12KT P6SM SCT100
     FM230200 36002KT P6SM SCT100
     FM230400 00000KT 4SM BR BKN100
     FM230600 00000KT 2SM BR BKN080
     FM231300 11005KT P6SM BKN050=

USA.gov is the U.S. government's official web portal to all federal, state and local government web resources and services.